createdAt,value
2019-01-18T00:00:37.387Z,3.50
2019-01-18T00:01:37.415Z,3.57
2019-01-18T00:04:32.637Z,3.50
2019-01-18T00:06:39.115Z,3.49
2019-01-18T00:09:13.579Z,3.50
2019-01-18T00:10:31.617Z,3.39
2019-01-18T00:11:11.520Z,3.42
2019-01-18T00:13:43.741Z,3.56
2019-01-18T00:14:46.306Z,3.57
2019-01-18T00:15:42.306Z,3.50
2019-01-18T00:18:35.025Z,3.53
2019-01-18T00:19:35.030Z,3.45
2019-01-18T00:20:18.030Z,3.49
2019-01-18T00:23:07.248Z,3.53
2019-01-18T00:24:07.255Z,3.53
2019-01-18T00:25:07.255Z,3.50
2019-01-18T00:29:13.413Z,3.57
2019-01-18T00:30:13.415Z,3.57
2019-01-18T00:30:59.380Z,3.68
2019-01-18T00:34:56.986Z,3.68
2019-01-18T00:37:30.411Z,3.70
2019-01-18T00:38:30.426Z,3.72
2019-01-18T00:41:05.134Z,3.68
2019-01-18T00:43:33.602Z,3.67
2019-01-18T00:44:33.608Z,3.64
2019-01-18T00:45:33.608Z,3.57
2019-01-18T00:48:08.847Z,3.49
2019-01-18T00:49:11.249Z,3.68
2019-01-18T00:52:06.208Z,3.74
2019-01-18T00:52:42.670Z,3.64
2019-01-18T00:54:02.214Z,3.70
2019-01-18T00:54:41.213Z,3.74
2019-01-18T00:57:17.256Z,3.63
2019-01-18T00:58:33.939Z,3.67
2019-01-18T00:59:12.939Z,3.67
2019-01-18T01:01:46.099Z,3.57
2019-01-18T01:02:47.164Z,3.60
2019-01-18T01:03:44.667Z,3.71
2019-01-18T01:05:07.130Z,3.72
2019-01-18T01:05:46.606Z,3.70
2019-01-18T01:06:46.122Z,3.75
2019-01-18T01:09:40.099Z,3.77
2019-01-18T01:10:19.855Z,3.80
2019-01-18T01:11:19.861Z,3.77
2019-01-18T01:12:41.355Z,3.68
2019-01-18T01:14:56.946Z,3.81
2019-01-18T01:15:55.480Z,3.84
2019-01-18T01:18:29.198Z,3.70
2019-01-18T01:19:27.210Z,3.50
2019-01-18T01:20:27.208Z,3.53
2019-01-18T01:21:27.705Z,3.52
2019-01-18T01:22:27.705Z,3.45
2019-01-18T01:23:31.706Z,3.45
2019-01-18T01:24:27.704Z,3.49
2019-01-18T01:27:01.422Z,3.52
2019-01-18T01:28:20.442Z,3.60
2019-01-18T01:29:02.932Z,3.64
2019-01-18T01:33:02.748Z,3.56
2019-01-18T01:35:36.673Z,3.71
2019-01-18T01:36:57.665Z,3.64
2019-01-18T01:37:57.679Z,3.70
2019-01-18T01:41:43.727Z,3.59
2019-01-18T01:42:43.736Z,3.52
2019-01-18T01:43:43.729Z,3.56
2019-01-18T01:44:44.228Z,3.60
2019-01-18T01:45:47.731Z,3.54
2019-01-18T01:46:46.228Z,3.57
2019-01-18T01:48:05.229Z,3.46
2019-01-18T01:51:56.879Z,3.64
2019-01-18T01:54:39.860Z,3.70
2019-01-18T01:55:18.867Z,3.68
2019-01-18T01:56:18.871Z,3.56
2019-01-18T01:57:43.370Z,3.64
2019-01-18T01:58:19.367Z,3.62
2019-01-18T01:59:19.366Z,3.59
2019-01-18T02:00:19.366Z,3.63
2019-01-18T02:01:19.865Z,3.46
2019-01-18T02:03:54.910Z,3.63
2019-01-18T02:04:55.641Z,3.60
2019-01-18T02:05:55.650Z,3.60
2019-01-18T02:06:56.137Z,3.63
2019-01-18T02:08:20.141Z,3.67
2019-01-18T02:08:56.146Z,3.64
2019-01-18T02:09:56.141Z,3.74
2019-01-18T02:10:56.641Z,3.81
2019-01-18T02:15:03.362Z,3.84
2019-01-18T02:17:57.813Z,3.78
2019-01-18T02:20:30.592Z,3.75
2019-01-18T02:21:09.610Z,3.72
2019-01-18T02:22:30.608Z,3.75
2019-01-18T02:24:45.332Z,3.59
2019-01-18T02:25:40.670Z,3.60
2019-01-18T02:26:43.276Z,3.60
2019-01-18T02:27:41.336Z,3.68
2019-01-18T02:29:02.844Z,3.67
2019-01-18T02:30:06.346Z,3.62
2019-01-18T02:30:41.186Z,3.68
2019-01-18T02:31:41.838Z,3.67
2019-01-18T02:33:04.807Z,3.62
2019-01-18T02:34:17.340Z,3.57
2019-01-18T02:34:42.340Z,3.70
2019-01-18T02:36:07.338Z,3.64
2019-01-18T02:36:42.368Z,3.70
2019-01-18T02:39:14.098Z,3.81
2019-01-18T02:40:15.575Z,3.77
2019-01-18T02:41:18.102Z,3.81
2019-01-18T02:42:37.051Z,3.78
2019-01-18T02:44:45.917Z,3.68
2019-01-18T02:45:45.915Z,3.70
2019-01-18T02:46:49.913Z,3.72
2019-01-18T02:48:07.412Z,3.74
2019-01-18T02:49:07.406Z,3.68
2019-01-18T02:50:10.347Z,3.71
2019-01-18T02:50:46.413Z,3.77
2019-01-18T02:54:53.898Z,3.84
2019-01-18T02:55:53.902Z,3.77
2019-01-18T02:57:19.337Z,3.90
2019-01-18T02:58:15.404Z,3.89
2019-01-18T02:58:54.407Z,3.88
2019-01-18T03:00:15.401Z,3.77
2019-01-18T03:00:54.409Z,3.77
2019-01-18T03:01:58.400Z,3.80
2019-01-18T03:05:57.654Z,3.52
2019-01-18T03:07:01.661Z,3.56
2019-01-18T03:07:58.653Z,3.35
2019-01-18T03:09:04.158Z,3.41
2019-01-18T03:11:29.376Z,3.41
2019-01-18T03:12:56.387Z,3.34
2019-01-18T03:13:29.388Z,3.41
2019-01-18T03:14:50.894Z,3.42
2019-01-18T03:17:03.674Z,3.50
2019-01-18T03:18:25.743Z,3.53
2019-01-18T03:19:01.239Z,3.45
2019-01-18T03:20:01.754Z,3.53
2019-01-18T03:22:33.083Z,3.35
2019-01-18T03:25:07.920Z,3.37
2019-01-18T03:26:07.929Z,3.46
2019-01-18T03:27:07.933Z,3.30
2019-01-18T03:31:16.464Z,3.35
2019-01-18T03:32:36.029Z,3.41
2019-01-18T03:33:15.029Z,3.50
2019-01-18T03:34:16.963Z,3.54
2019-01-18T03:35:40.029Z,3.45
2019-01-18T03:36:15.538Z,3.52
2019-01-18T03:37:16.961Z,3.49
2019-01-18T03:40:08.243Z,3.57
2019-01-18T03:40:50.750Z,3.57
2019-01-18T03:42:08.249Z,3.49
2019-01-18T03:42:47.750Z,3.49
2019-01-18T03:45:19.106Z,3.45
2019-01-18T03:49:26.708Z,3.44
2019-01-18T03:50:25.249Z,3.17
2019-01-18T03:51:28.749Z,3.17
2019-01-18T03:54:17.966Z,3.15
2019-01-18T03:54:58.407Z,3.22
2019-01-18T03:55:56.976Z,3.31
2019-01-18T03:58:53.662Z,3.26
2019-01-18T03:59:32.670Z,3.28
2019-01-18T04:00:32.677Z,3.31
2019-01-18T04:01:56.170Z,3.31
2019-01-18T04:02:36.670Z,3.31
2019-01-18T04:03:33.174Z,3.34
2019-01-18T04:04:33.242Z,3.34
2019-01-18T04:05:33.669Z,3.34
2019-01-18T04:08:08.385Z,3.44
2019-01-18T04:09:04.896Z,3.50
2019-01-18T04:10:27.348Z,3.56
2019-01-18T04:12:58.551Z,3.62
2019-01-18T04:13:40.080Z,3.50
2019-01-18T04:14:50.582Z,3.56
2019-01-18T04:15:37.087Z,3.50
2019-01-18T04:16:59.043Z,3.64
2019-01-18T04:17:37.083Z,3.62
2019-01-18T04:18:43.514Z,3.53
2019-01-18T04:19:37.589Z,3.52
2019-01-18T04:21:00.578Z,3.49
2019-01-18T04:23:10.495Z,3.52
2019-01-18T04:25:44.224Z,3.49
2019-01-18T04:26:44.262Z,3.39
2019-01-18T04:27:44.235Z,3.35
2019-01-18T04:29:09.666Z,3.41
2019-01-18T04:29:48.732Z,3.26
2019-01-18T04:31:05.728Z,3.26
2019-01-18T04:33:17.787Z,3.15
2019-01-18T04:36:15.836Z,3.20
2019-01-18T04:37:16.329Z,3.17
2019-01-18T04:37:48.398Z,3.17
2019-01-18T04:38:48.395Z,3.26
2019-01-18T04:39:48.895Z,3.33
2019-01-18T04:44:03.019Z,3.34
2019-01-18T04:44:56.041Z,3.17
2019-01-18T04:47:31.373Z,3.13
2019-01-18T04:48:31.400Z,3.16
2019-01-18T04:49:31.378Z,3.05
2019-01-18T04:52:07.095Z,3.05
2019-01-18T04:53:03.099Z,3.05
2019-01-18T04:54:03.099Z,3.02
2019-01-18T04:59:41.417Z,3.10
2019-01-18T05:00:41.819Z,3.07
2019-01-18T05:01:41.469Z,3.13
2019-01-18T05:02:41.960Z,3.17
2019-01-18T05:04:07.895Z,3.15
2019-01-18T05:05:02.962Z,3.05
2019-01-18T05:05:41.962Z,3.12
2019-01-18T05:07:04.908Z,3.12
2019-01-18T05:07:42.482Z,3.13
2019-01-18T05:08:42.460Z,3.16
2019-01-18T05:09:45.465Z,3.15
2019-01-18T05:10:43.896Z,3.04
2019-01-18T05:13:16.260Z,3.08
2019-01-18T05:14:14.179Z,3.07
2019-01-18T05:15:17.234Z,2.94
2019-01-18T05:18:07.402Z,2.92
2019-01-18T05:20:42.255Z,3.04
2019-01-18T05:21:17.758Z,3.10
2019-01-18T05:22:17.768Z,3.04
2019-01-18T05:23:39.261Z,3.04
2019-01-18T05:24:19.236Z,2.94
2019-01-18T05:25:18.258Z,2.94
2019-01-18T05:26:25.693Z,2.80
2019-01-18T05:36:30.622Z,2.79
2019-01-18T05:37:54.631Z,2.59
2019-01-18T05:38:30.629Z,2.59
2019-01-18T05:39:31.133Z,2.59
2019-01-18T05:40:32.576Z,2.66
2019-01-18T05:43:27.553Z,2.47
2019-01-18T05:44:02.559Z,2.45
2019-01-18T05:45:02.568Z,2.41
2019-01-18T05:46:31.496Z,2.45
2019-01-18T05:47:02.225Z,2.50
2019-01-18T05:48:34.065Z,2.65
2019-01-18T05:49:03.058Z,2.65
2019-01-18T05:50:03.060Z,2.61
2019-01-18T05:52:55.776Z,2.43
2019-01-18T05:53:40.228Z,2.45
2019-01-18T05:54:36.255Z,2.38
2019-01-18T05:57:06.489Z,2.27
2019-01-18T05:58:06.486Z,2.45
2019-01-18T05:59:10.488Z,2.26
2019-01-18T06:00:27.988Z,2.27
2019-01-18T06:01:28.174Z,2.32
2019-01-18T06:02:06.325Z,2.29
2019-01-18T06:03:06.981Z,2.26
2019-01-18T06:04:06.981Z,2.30
2019-01-18T06:05:10.479Z,2.22
2019-01-18T06:06:07.490Z,2.27
2019-01-18T06:07:28.479Z,2.27
2019-01-18T06:08:07.477Z,2.25
2019-01-18T06:13:46.078Z,2.32
2019-01-18T06:14:46.091Z,2.29
2019-01-18T06:17:20.898Z,2.29
2019-01-18T06:18:20.905Z,2.23
2019-01-18T06:19:24.840Z,2.20
2019-01-18T06:22:17.627Z,2.18
2019-01-18T06:25:56.017Z,2.08
2019-01-18T06:27:01.487Z,2.00
2019-01-18T06:29:27.703Z,2.02
2019-01-18T06:30:48.711Z,2.07
2019-01-18T06:31:27.714Z,2.04
2019-01-18T06:32:31.211Z,2.07
2019-01-18T06:33:49.210Z,2.01
2019-01-18T06:34:28.213Z,2.05
2019-01-18T06:35:28.215Z,2.08
2019-01-18T06:36:28.711Z,2.07
2019-01-18T06:37:32.711Z,2.00
2019-01-18T06:38:28.711Z,2.08
2019-01-18T06:39:29.659Z,1.95
2019-01-18T06:40:30.665Z,1.95
2019-01-18T06:41:29.217Z,1.92
2019-01-18T06:42:29.211Z,1.93
2019-01-18T06:43:32.713Z,1.86
2019-01-18T06:44:29.211Z,1.88
2019-01-18T06:45:31.145Z,1.79
2019-01-18T06:46:29.710Z,1.79
2019-01-18T06:47:29.708Z,1.83
2019-01-18T06:48:54.711Z,1.86
2019-01-18T06:49:30.208Z,1.81
2019-01-18T06:55:08.231Z,1.50
2019-01-18T06:56:08.235Z,1.42
2019-01-18T06:57:08.238Z,1.42
2019-01-18T06:58:08.740Z,1.42
2019-01-18T07:00:43.870Z,1.46
2019-01-18T07:01:47.855Z,1.35
2019-01-18T07:03:04.889Z,1.36
2019-01-18T07:03:44.836Z,1.42
2019-01-18T07:05:08.876Z,1.38
2019-01-18T07:07:17.074Z,1.39
2019-01-18T07:08:36.610Z,1.38
2019-01-18T07:09:15.625Z,1.38
2019-01-18T07:11:51.084Z,1.20
2019-01-18T07:12:51.093Z,1.16
2019-01-18T07:13:55.537Z,0.99
2019-01-18T07:17:59.597Z,1.14
2019-01-18T07:18:58.634Z,1.11
2019-01-18T07:19:58.168Z,1.14
2019-01-18T07:21:21.142Z,1.06
2019-01-18T07:22:23.161Z,1.13
2019-01-18T07:23:19.662Z,1.16
2019-01-18T07:23:58.663Z,1.14
2019-01-18T07:25:20.162Z,1.10
2019-01-18T07:26:34.164Z,1.18
2019-01-18T07:27:29.662Z,1.16
2019-01-18T07:27:59.164Z,1.17
2019-01-18T07:30:30.183Z,1.24
2019-01-18T07:31:30.260Z,1.24
2019-01-18T07:32:55.888Z,1.20
2019-01-18T07:33:37.385Z,1.14
2019-01-18T07:34:52.392Z,0.98
2019-01-18T07:35:30.734Z,0.99
2019-01-18T07:36:31.384Z,1.02
2019-01-18T07:39:07.018Z,0.92
2019-01-18T07:40:10.959Z,0.98
2019-01-18T07:41:07.025Z,0.82
2019-01-18T07:43:42.239Z,0.95
2019-01-18T07:44:41.246Z,0.82
2019-01-18T07:45:39.247Z,0.92
2019-01-18T07:46:39.247Z,0.92
2019-01-18T07:49:14.962Z,0.90
2019-01-18T07:50:10.801Z,0.95
2019-01-18T07:53:12.959Z,1.10
2019-01-18T07:53:43.025Z,1.20
2019-01-18T07:55:07.531Z,1.18
2019-01-18T07:56:04.532Z,1.24
2019-01-18T07:57:04.534Z,1.17
2019-01-18T07:57:43.570Z,1.21
2019-01-18T07:59:06.458Z,1.24
2019-01-18T07:59:47.524Z,1.10
2019-01-18T08:00:58.024Z,1.18
2019-01-18T08:01:44.022Z,1.13
2019-01-18T08:04:15.740Z,1.11
2019-01-18T08:05:18.256Z,1.00
2019-01-18T08:06:15.755Z,1.08
2019-01-18T08:08:48.913Z,1.29
2019-01-18T08:09:49.480Z,1.32
2019-01-18T08:10:52.413Z,1.29
2019-01-18T08:12:01.974Z,1.35
2019-01-18T08:12:47.211Z,1.35
2019-01-18T08:14:09.913Z,1.36
2019-01-18T08:14:47.978Z,1.46
2019-01-18T08:17:23.501Z,1.39
2019-01-18T08:18:44.502Z,1.49
2019-01-18T08:19:44.501Z,1.47
2019-01-18T08:22:07.168Z,1.52
2019-01-18T08:23:09.231Z,1.54
2019-01-18T08:23:55.251Z,1.70
2019-01-18T08:26:48.439Z,1.54
2019-01-18T08:27:30.946Z,1.52
2019-01-18T08:28:48.600Z,1.56
2019-01-18T08:29:27.449Z,1.53
2019-01-18T08:30:48.447Z,1.52
2019-01-18T08:31:30.882Z,1.54
2019-01-18T08:34:09.294Z,1.68
2019-01-18T08:35:03.342Z,1.68
2019-01-18T08:36:24.310Z,1.82
2019-01-18T08:38:53.018Z,1.90
2019-01-18T08:39:49.088Z,1.83
2019-01-18T08:40:56.026Z,1.88
2019-01-18T08:41:35.530Z,1.95
2019-01-18T08:44:09.825Z,1.93
2019-01-18T08:45:28.370Z,2.05
2019-01-18T08:46:07.384Z,2.05
2019-01-18T08:47:07.371Z,2.02
2019-01-18T08:48:27.833Z,2.14
2019-01-18T08:49:13.875Z,2.08
2019-01-18T08:50:11.341Z,2.14
2019-01-18T08:51:07.874Z,2.18
2019-01-18T08:52:21.874Z,2.11
2019-01-18T08:53:09.310Z,2.22
2019-01-18T08:54:10.374Z,2.14
2019-01-18T09:00:06.217Z,2.15
2019-01-18T09:00:48.662Z,2.22
2019-01-18T09:01:47.973Z,2.22
2019-01-18T09:02:45.942Z,2.25
2019-01-18T09:03:52.454Z,2.29
2019-01-18T09:04:47.898Z,2.27
2019-01-18T09:06:10.773Z,2.25
2019-01-18T09:06:47.397Z,2.26
2019-01-18T09:07:45.993Z,2.27
2019-01-18T09:09:07.957Z,2.41
2019-01-18T09:15:56.392Z,2.22
2019-01-18T09:17:22.895Z,2.20
2019-01-18T09:19:28.122Z,2.15
2019-01-18T09:20:49.127Z,2.09
2019-01-18T09:21:28.126Z,2.05
2019-01-18T09:22:53.136Z,2.09
2019-01-18T09:25:01.442Z,2.19
2019-01-18T09:26:13.986Z,2.25
2019-01-18T09:27:00.926Z,2.26
2019-01-18T09:29:55.720Z,2.48
2019-01-18T09:30:56.383Z,2.43
2019-01-18T09:33:31.981Z,2.59
2019-01-18T09:34:06.701Z,2.68
2019-01-18T09:35:30.423Z,2.65
2019-01-18T09:37:38.959Z,2.50
2019-01-18T09:39:09.966Z,2.50
2019-01-18T09:39:38.962Z,2.63
2019-01-18T09:40:38.552Z,2.73
2019-01-18T09:41:39.461Z,2.71
2019-01-18T09:43:00.460Z,2.76
2019-01-18T09:43:40.895Z,2.74
2019-01-18T09:44:42.063Z,2.79
2019-01-18T09:47:11.167Z,2.81
2019-01-18T09:48:32.160Z,2.77
2019-01-18T09:50:46.759Z,2.80
2019-01-18T09:51:48.770Z,2.94
2019-01-18T09:52:48.202Z,2.95
2019-01-18T09:53:43.267Z,3.08
2019-01-18T09:54:42.477Z,3.10
2019-01-18T09:56:08.268Z,3.01
2019-01-18T09:56:42.612Z,3.04
2019-01-18T09:57:48.702Z,3.12
2019-01-18T09:58:43.267Z,3.15
2019-01-18T10:00:06.767Z,3.19
2019-01-18T10:00:42.994Z,3.30
2019-01-18T10:01:49.358Z,3.34
2019-01-18T10:04:15.759Z,3.46
2019-01-18T10:05:36.763Z,3.37
2019-01-18T10:06:36.775Z,3.34
2019-01-18T10:09:11.946Z,3.33
2019-01-18T10:09:50.953Z,3.37
2019-01-18T10:10:50.953Z,3.50
2019-01-18T10:11:51.453Z,3.44
2019-01-18T10:12:54.956Z,3.52
2019-01-18T10:13:51.453Z,3.63
2019-01-18T10:14:51.452Z,3.62
2019-01-18T10:19:12.093Z,3.78
2019-01-18T10:19:54.602Z,3.81
2019-01-18T10:20:54.603Z,3.72
2019-01-18T10:22:30.101Z,3.86
2019-01-18T10:22:55.106Z,3.80
2019-01-18T10:24:28.535Z,3.90
2019-01-18T10:25:16.104Z,3.93
2019-01-18T10:26:16.603Z,3.96
2019-01-18T10:27:01.607Z,3.86
2019-01-18T10:34:05.312Z,4.04
2019-01-18T10:35:09.539Z,4.08
2019-01-18T10:36:27.105Z,4.00
2019-01-18T10:37:20.546Z,3.80
2019-01-18T10:41:11.921Z,3.92
2019-01-18T10:42:09.688Z,3.88
2019-01-18T10:43:30.687Z,3.89
2019-01-18T10:44:09.691Z,4.00
2019-01-18T10:45:09.687Z,4.00
2019-01-18T10:46:15.640Z,4.04
2019-01-18T10:47:10.185Z,3.82
2019-01-18T10:48:09.400Z,3.95
2019-01-18T10:49:10.187Z,3.88
2019-01-18T10:50:10.187Z,4.00
2019-01-18T10:51:10.187Z,4.00
2019-01-18T10:53:44.491Z,3.89
2019-01-18T10:55:05.561Z,3.99
2019-01-18T10:57:41.795Z,4.25
2019-01-18T10:58:37.798Z,4.21
2019-01-18T10:59:16.392Z,4.31
2019-01-18T11:00:16.491Z,4.31
2019-01-18T11:01:17.298Z,4.25
2019-01-18T11:02:17.347Z,4.35
2019-01-18T11:03:20.798Z,4.39
2019-01-18T11:04:17.319Z,4.42
2019-01-18T11:05:17.795Z,4.44
2019-01-18T11:06:37.991Z,4.47
2019-01-18T11:07:19.798Z,4.47
2019-01-18T11:08:43.301Z,4.53
2019-01-18T11:09:38.801Z,4.62
2019-01-18T11:11:48.819Z,4.74
2019-01-18T11:12:49.531Z,4.71
2019-01-18T11:13:53.550Z,4.84
2019-01-18T11:14:49.110Z,4.83
2019-01-18T11:16:10.199Z,4.77
2019-01-18T11:16:50.047Z,4.94
2019-01-18T11:17:50.031Z,5.01
2019-01-18T11:18:50.040Z,5.14
2019-01-18T11:19:53.016Z,5.22
2019-01-18T11:20:51.123Z,5.45
2019-01-18T11:22:11.529Z,5.81
2019-01-18T11:23:11.546Z,6.06
2019-01-18T11:25:31.575Z,7.41
2019-01-18T11:26:23.266Z,8.09
2019-01-18T11:27:22.784Z,8.57
2019-01-18T11:28:44.743Z,9.08
2019-01-18T11:30:57.730Z,10.18
2019-01-18T11:32:17.172Z,10.11
2019-01-18T11:33:15.235Z,10.26
2019-01-18T11:34:15.755Z,10.38
2019-01-18T11:34:53.993Z,10.46
2019-01-18T11:35:54.737Z,10.25
2019-01-18T11:36:58.737Z,10.35
2019-01-18T11:39:26.486Z,10.26
2019-01-18T11:40:26.490Z,10.26
2019-01-18T11:41:26.484Z,10.07
2019-01-18T11:42:31.457Z,10.20
2019-01-18T11:43:32.983Z,10.18
2019-01-18T11:44:26.982Z,10.31
2019-01-18T11:45:26.987Z,10.43
2019-01-18T11:46:41.499Z,10.76
2019-01-18T11:47:28.373Z,10.86
2019-01-18T11:48:31.485Z,11.24
2019-01-18T11:49:27.487Z,11.19
2019-01-18T11:50:27.110Z,11.31
2019-01-18T11:51:27.177Z,11.64
2019-01-18T11:52:27.273Z,11.45
2019-01-18T11:53:27.375Z,10.93
2019-01-18T11:54:30.734Z,10.98
2019-01-18T11:55:27.580Z,11.45
2019-01-18T11:56:27.678Z,11.57
2019-01-18T11:57:27.777Z,11.46
2019-01-18T11:58:27.891Z,10.94
2019-01-18T11:59:31.884Z,10.49
2019-01-18T12:00:28.110Z,10.06
2019-01-18T12:01:28.230Z,9.59
2019-01-18T12:02:28.325Z,9.50
2019-01-18T12:03:28.432Z,9.60
2019-01-18T12:04:28.545Z,9.40
2019-01-18T12:05:31.877Z,9.26
2019-01-18T12:06:28.694Z,9.26
2019-01-18T12:07:28.794Z,9.22
2019-01-18T12:08:28.886Z,9.56
2019-01-18T12:09:28.995Z,9.78
2019-01-18T12:10:33.027Z,9.53
2019-01-18T12:11:30.256Z,9.32
2019-01-18T12:12:29.327Z,8.98
2019-01-18T12:13:29.433Z,8.75
2019-01-18T12:14:29.538Z,8.83
2019-01-18T12:15:29.649Z,8.91
2019-01-18T12:16:33.015Z,9.49
2019-01-18T12:17:29.900Z,9.73
2019-01-18T12:18:29.997Z,9.88
2019-01-18T12:19:30.095Z,10.06
2019-01-18T12:20:30.201Z,10.46
2019-01-18T12:21:37.186Z,10.63
2019-01-18T12:22:30.403Z,11.02
2019-01-18T12:23:30.498Z,11.01
2019-01-18T12:24:30.593Z,11.30
2019-01-18T12:25:30.692Z,11.87
2019-01-18T12:26:35.363Z,12.19
2019-01-18T12:27:30.843Z,12.58
2019-01-18T12:28:30.939Z,12.01
2019-01-18T12:29:31.036Z,11.84
2019-01-18T12:30:31.132Z,11.56
2019-01-18T12:31:31.236Z,11.78
2019-01-18T12:32:35.355Z,11.81
2019-01-18T12:33:31.458Z,12.15
2019-01-18T12:34:31.563Z,12.46
2019-01-18T12:35:31.647Z,12.59
2019-01-18T12:36:31.750Z,12.73
2019-01-18T12:37:31.858Z,12.85
2019-01-18T12:38:35.339Z,13.16
2019-01-18T12:39:32.069Z,13.39
2019-01-18T12:40:32.193Z,13.46
2019-01-18T12:41:33.244Z,13.76
2019-01-18T12:42:32.463Z,13.80
2019-01-18T12:43:36.481Z,13.65
2019-01-18T12:44:32.715Z,13.84
2019-01-18T12:45:32.826Z,14.19
2019-01-18T12:46:32.981Z,14.45
2019-01-18T12:47:33.069Z,14.78
2019-01-18T12:48:36.636Z,14.26
2019-01-18T12:49:33.926Z,14.30
2019-01-18T12:50:33.410Z,13.86
2019-01-18T12:51:33.510Z,13.73
2019-01-18T12:52:33.611Z,13.71
2019-01-18T12:53:33.717Z,12.85
2019-01-18T12:54:36.620Z,13.01
2019-01-18T12:55:33.978Z,12.73
2019-01-18T12:56:34.085Z,12.76
2019-01-18T12:57:34.187Z,12.70
2019-01-18T12:58:34.289Z,12.26
2019-01-18T12:59:37.829Z,12.22
2019-01-18T13:00:34.558Z,12.15
2019-01-18T13:01:34.662Z,11.78
2019-01-18T13:02:35.374Z,11.62
2019-01-18T13:03:34.869Z,11.42
2019-01-18T13:04:38.974Z,10.95
2019-01-18T13:05:35.075Z,10.84
2019-01-18T13:06:35.179Z,10.72
2019-01-18T13:07:35.287Z,10.55
2019-01-18T13:08:35.962Z,10.81
2019-01-18T13:09:35.474Z,10.98
2019-01-18T13:10:38.981Z,11.13
2019-01-18T13:11:35.713Z,11.51
2019-01-18T13:12:35.803Z,11.87
2019-01-18T13:13:35.910Z,12.23
2019-01-18T13:14:36.016Z,12.85
2019-01-18T13:15:40.107Z,12.96
2019-01-18T13:16:36.211Z,13.27
2019-01-18T13:17:36.311Z,13.48
2019-01-18T13:18:36.413Z,13.61
2019-01-18T13:19:36.515Z,13.22
2019-01-18T13:20:36.619Z,12.63
2019-01-18T13:21:40.070Z,12.15
2019-01-18T13:22:36.798Z,11.94
2019-01-18T13:23:36.900Z,11.66
2019-01-18T13:24:37.005Z,11.42
2019-01-18T13:25:37.106Z,11.11
2019-01-18T13:26:41.272Z,10.95
2019-01-18T13:27:37.365Z,10.65
2019-01-18T13:28:37.458Z,10.65
2019-01-18T13:29:37.563Z,10.18
2019-01-18T13:30:37.662Z,10.17
2019-01-18T13:31:37.776Z,10.36
2019-01-18T13:32:41.762Z,10.78
2019-01-18T13:33:37.986Z,11.03
2019-01-18T13:34:38.092Z,11.19
2019-01-18T13:35:38.225Z,11.41
2019-01-18T13:36:38.330Z,11.60
2019-01-18T13:37:42.459Z,11.79
2019-01-18T13:38:38.556Z,11.81
2019-01-18T13:39:38.669Z,12.16
2019-01-18T13:40:38.755Z,12.51
2019-01-18T13:41:38.864Z,12.51
2019-01-18T13:42:38.969Z,11.97
2019-01-18T13:43:42.412Z,11.33
2019-01-18T13:44:43.532Z,11.41
2019-01-18T13:45:39.277Z,11.24
2019-01-18T13:46:39.369Z,11.36
2019-01-18T13:47:39.469Z,11.23
2019-01-18T13:48:43.574Z,10.94
2019-01-18T13:49:39.680Z,10.72
2019-01-18T13:50:39.763Z,10.02
2019-01-18T13:51:39.871Z,9.49
2019-01-18T13:52:39.982Z,9.44
2019-01-18T13:53:43.728Z,9.12
2019-01-18T13:54:40.221Z,8.98
2019-01-18T13:55:40.292Z,8.79
2019-01-18T13:56:40.420Z,8.63
2019-01-18T13:57:40.514Z,8.28
2019-01-18T13:58:40.632Z,8.18
2019-01-18T13:59:44.719Z,7.84
2019-01-18T14:00:40.816Z,7.67
2019-01-18T14:01:40.913Z,7.48
2019-01-18T14:02:41.011Z,7.36
2019-01-18T14:03:41.112Z,7.18
2019-01-18T14:04:41.198Z,7.14
2019-01-18T14:05:44.688Z,7.08
2019-01-18T14:06:41.416Z,6.99
2019-01-18T14:07:41.510Z,6.97
2019-01-18T14:08:41.613Z,6.86
2019-01-18T14:09:41.720Z,6.75
2019-01-18T14:10:45.848Z,6.75
2019-01-18T14:11:41.942Z,6.71
2019-01-18T14:12:42.064Z,6.71
2019-01-18T14:13:42.210Z,6.63
2019-01-18T14:14:42.311Z,6.61
2019-01-18T14:15:42.395Z,6.60
2019-01-18T14:16:45.820Z,6.50
2019-01-18T14:17:42.558Z,6.40
2019-01-18T14:18:42.628Z,6.42
2019-01-18T14:19:42.722Z,6.30
2019-01-18T14:20:42.820Z,6.35
2019-01-18T14:21:46.979Z,6.36
2019-01-18T14:22:43.072Z,6.36
2019-01-18T14:23:43.159Z,6.32
2019-01-18T14:24:43.262Z,6.21
2019-01-18T14:25:43.358Z,6.20
2019-01-18T14:26:43.452Z,6.06
2019-01-18T14:27:47.017Z,6.06
2019-01-18T14:28:43.703Z,6.05
2019-01-18T14:29:43.795Z,6.01
2019-01-18T14:30:43.887Z,5.92
2019-01-18T14:31:43.977Z,5.74
2019-01-18T14:32:48.131Z,5.66
2019-01-18T14:33:44.223Z,5.63
2019-01-18T14:34:44.318Z,5.51
2019-01-18T14:35:44.408Z,5.45
2019-01-18T14:36:44.519Z,5.32
2019-01-18T14:37:44.605Z,5.23
2019-01-18T14:38:48.098Z,5.15
2019-01-18T14:39:44.810Z,5.14
2019-01-18T14:40:45.004Z,5.06
2019-01-18T14:41:45.060Z,4.93
2019-01-18T14:42:45.141Z,4.84
2019-01-18T14:43:49.253Z,4.88
2019-01-18T14:44:45.352Z,4.77
2019-01-18T14:45:45.444Z,4.67
2019-01-18T14:46:45.534Z,4.79
2019-01-18T14:47:45.623Z,4.65
2019-01-18T14:48:45.723Z,4.59
2019-01-18T14:49:49.242Z,4.39
2019-01-18T14:50:45.952Z,4.43
2019-01-18T14:51:46.028Z,4.32
2019-01-18T14:52:46.122Z,4.16
2019-01-18T14:53:46.212Z,4.07
2019-01-18T14:54:46.305Z,4.07
2019-01-18T14:55:50.214Z,3.98
2019-01-18T14:56:46.550Z,3.92
2019-01-18T14:57:46.642Z,3.84
2019-01-18T14:58:46.729Z,3.78
2019-01-18T14:59:46.817Z,3.63
2019-01-18T15:00:46.914Z,3.56
2019-01-18T15:01:50.186Z,3.56
2019-01-18T15:02:47.154Z,3.53
2019-01-18T15:03:47.235Z,3.50
2019-01-18T15:04:47.337Z,3.52
2019-01-18T15:05:47.434Z,3.35
2019-01-18T15:06:51.356Z,3.34
2019-01-18T15:07:47.570Z,3.35
2019-01-18T15:08:47.650Z,3.45
2019-01-18T15:09:47.751Z,3.39
2019-01-18T15:10:47.838Z,3.34
2019-01-18T15:11:47.934Z,3.35
2019-01-18T15:12:51.325Z,3.26
2019-01-18T15:13:48.166Z,3.30
2019-01-18T15:14:48.270Z,3.28
2019-01-18T15:15:48.344Z,3.15
2019-01-18T15:16:48.449Z,3.16
2019-01-18T15:17:52.496Z,3.16
2019-01-18T15:18:48.702Z,3.15
2019-01-18T15:19:48.783Z,3.10
2019-01-18T15:20:48.872Z,3.04
2019-01-18T15:21:48.961Z,3.05
2019-01-18T15:22:49.065Z,3.02
2019-01-18T15:23:52.494Z,2.94
2019-01-18T15:24:49.218Z,2.95
2019-01-18T15:25:49.311Z,2.92
2019-01-18T15:26:49.396Z,2.89
2019-01-18T15:27:49.487Z,2.80
2019-01-18T15:28:52.670Z,2.87
2019-01-18T15:29:49.629Z,2.81
2019-01-18T15:30:49.710Z,2.69
2019-01-18T15:31:49.837Z,2.65
2019-01-18T15:32:49.928Z,2.69
2019-01-18T15:33:53.834Z,2.62
2019-01-18T15:34:50.160Z,2.58
2019-01-18T15:35:50.255Z,2.63
2019-01-18T15:36:50.346Z,2.61
2019-01-18T15:37:50.442Z,2.45
2019-01-18T15:38:50.534Z,2.43
2019-01-18T15:39:53.814Z,2.45
2019-01-18T15:40:50.778Z,2.40
2019-01-18T15:41:50.913Z,2.41
2019-01-18T15:42:50.982Z,2.47
2019-01-18T15:43:51.059Z,2.45
2019-01-18T15:44:54.970Z,2.44
2019-01-18T15:45:51.186Z,2.41
2019-01-18T15:46:51.276Z,2.47
2019-01-18T15:47:51.377Z,2.45
2019-01-18T15:48:51.456Z,2.44
2019-01-18T15:49:51.547Z,2.41
2019-01-18T15:50:54.947Z,2.32
2019-01-18T15:51:51.785Z,2.43
2019-01-18T15:52:51.900Z,2.41
2019-01-18T15:53:51.964Z,2.47
2019-01-18T15:54:52.052Z,2.36
2019-01-18T15:55:56.126Z,2.41
2019-01-18T15:56:52.197Z,2.29
2019-01-18T15:57:52.286Z,2.26
2019-01-18T15:58:52.393Z,2.30
2019-01-18T15:59:53.610Z,2.30
2019-01-18T16:00:52.586Z,2.18
2019-01-18T16:01:56.087Z,2.12
2019-01-18T16:02:52.827Z,2.05
2019-01-18T16:03:53.066Z,2.04
2019-01-18T16:04:52.901Z,2.05
2019-01-18T16:05:52.996Z,2.04
2019-01-18T16:06:53.092Z,2.00
2019-01-18T16:07:57.056Z,1.98
2019-01-18T16:08:53.436Z,1.89
2019-01-18T16:09:53.386Z,1.86
2019-01-18T16:10:53.477Z,1.86
2019-01-18T16:11:53.557Z,1.81
2019-01-18T16:12:53.658Z,1.77
2019-01-18T16:13:57.029Z,1.86
2019-01-18T16:14:53.877Z,1.75
2019-01-18T16:15:53.980Z,1.77
2019-01-18T16:16:54.059Z,1.75
2019-01-18T16:17:54.142Z,1.63
2019-01-18T16:18:58.185Z,1.67
2019-01-18T16:19:54.274Z,1.65
2019-01-18T16:20:54.373Z,1.68
2019-01-18T16:21:54.457Z,1.68
2019-01-18T16:22:54.531Z,1.68
2019-01-18T16:23:54.624Z,1.68
2019-01-18T16:24:58.186Z,1.70
2019-01-18T16:25:54.776Z,1.63
2019-01-18T16:26:54.865Z,1.72
2019-01-18T16:27:54.950Z,1.65
2019-01-18T16:28:55.045Z,1.63
2019-01-18T16:29:55.128Z,1.54
2019-01-18T16:30:59.200Z,1.49
2019-01-18T16:31:55.288Z,1.53
2019-01-18T16:32:55.454Z,1.44
2019-01-18T16:33:55.465Z,1.43
2019-01-18T16:34:55.573Z,1.44
2019-01-18T16:35:55.646Z,1.35
2019-01-18T16:36:59.174Z,1.38
2019-01-18T16:37:55.895Z,1.34
2019-01-18T16:38:55.978Z,1.35
2019-01-18T16:39:56.065Z,1.31
2019-01-18T16:40:56.154Z,1.35
2019-01-18T16:41:56.262Z,1.39
2019-01-18T16:43:00.169Z,1.34
2019-01-18T16:43:56.376Z,1.35
2019-01-18T16:44:56.462Z,1.34
2019-01-18T16:45:56.562Z,1.26
2019-01-18T16:46:56.649Z,1.39